Time,TemperatureF,DewpointF,PressureIn,WindDirection,WindDirectionDegrees,WindSpeedMPH,WindSpeedGustMPH,Humidity,HourlyPrecipIn,Conditions,Clouds,dailyrainin,SolarRadiationWatts/m^2,SoftwareType,DateUTC
2013-04-26 00:01:00,71.6,62.9,30.15,ESE,105,3.0,4.0,74,0.00,,CLR,0.01,0.00,VWS V14.00,2013-04-26 04:01:00,
2013-04-26 00:06:00,71.6,63.3,30.14,ESE,105,0.0,0.0,75,0.00,,CLR,0.00,0.00,VWS V14.00,2013-04-26 04:06:00,
2013-04-26 00:11:00,71.6,63.3,30.15,ESE,105,0.0,0.0,75,0.00,,CLR,0.00,0.00,VWS V14.00,2013-04-26 04:11:00,
2013-04-26 00:16:00,71.7,63.4,30.15,ESE,105,0.0,0.0,75,0.00,,CLR,0.00,0.00,VWS V14.00,2013-04-26 04:16:00,
2013-04-26 00:21:00,71.7,63.4,30.15,ESE,105,0.0,1.0,75,0.00,,CLR,0.00,0.00,VWS V14.00,2013-04-26 04:21:00,
2013-04-26 00:26:00,71.7,63.0,30.15,ESE,105,0.0,1.0,74,0.00,,CLR,0.00,0.00,VWS V14.00,2013-04-26 04:26:00,
2013-04-26 00:32:00,71.7,63.0,30.15,ESE,105,0.0,0.0,74,0.00,,CLR,0.00,0.00,VWS V14.00,2013-04-26 04:32:00,
2013-04-26 00:36:00,71.8,63.5,30.14,ESE,105,2.0,2.0,75,0.00,,CLR,0.00,0.00,VWS V14.00,2013-04-26 04:36:00,
2013-04-26 00:42:00,71.6,62.9,30.14,ESE,105,0.0,0.0,74,0.00,,CLR,0.00,0.00,VWS V14.00,2013-04-26 04:42:00,
2013-04-26 00:47:00,71.5,62.8,30.14,ESE,105,1.0,3.0,74,0.00,,CLR,0.00,0.00,VWS V14.00,2013-04-26 04:47:00,
2013-04-26 00:52:00,71.5,63.2,30.14,ESE,105,0.0,0.0,75,0.00,,CLR,0.00,0.00,VWS V14.00,2013-04-26 04:52:00,
2013-04-26 00:57:00,71.3,62.6,30.14,ESE,105,0.0,0.0,74,0.00,,CLR,0.00,0.00,VWS V14.00,2013-04-26 04:57:00,
2013-04-26 01:02:00,71.2,62.5,30.14,ESE,105,0.0,0.0,74,0.00,,CLR,0.00,0.00,VWS V14.00,2013-04-26 05:02:00,
2013-04-26 01:07:00,71.1,62.4,30.14,ESE,105,0.0,0.0,74,0.00,,CLR,0.00,0.00,VWS V14.00,2013-04-26 05:07:00,
2013-04-26 01:12:00,71.1,62.8,30.14,ESE,105,1.0,1.0,75,0.00,,CLR,0.00,0.00,VWS V14.00,2013-04-26 05:12:00,
2013-04-26 01:17:00,71.0,62.7,30.14,ESE,105,0.0,0.0,75,0.00,,CLR,0.00,0.00,VWS V14.00,2013-04-26 05:17:00,
2013-04-26 01:22:00,70.8,62.5,30.14,ESE,105,0.0,1.0,75,0.00,,CLR,0.00,0.00,VWS V14.00,2013-04-26 05:22:00,
2013-04-26 01:27:00,70.6,62.3,30.14,ESE,105,0.0,0.0,75,0.00,,CLR,0.00,0.00,VWS V14.00,2013-04-26 05:27:00,
2013-04-26 01:32:00,70.5,62.2,30.14,ESE,105,0.0,0.0,75,0.00,,CLR,0.00,0.00,VWS V14.00,2013-04-26 05:32:00,
2013-04-26 01:37:00,70.4,62.5,30.13,ESE,105,0.0,0.0,76,0.00,,CLR,0.00,0.00,VWS V14.00,2013-04-26 05:37:00,
2013-04-26 01:42:00,70.4,62.5,30.13,ESE,105,0.0,0.0,76,0.00,,CLR,0.00,0.00,VWS V14.00,2013-04-26 05:42:00,
2013-04-26 01:47:00,70.5,63.0,30.13,ESE,105,0.0,0.0,77,0.00,,CLR,0.00,0.00,VWS V14.00,2013-04-26 05:47:00,
2013-04-26 01:52:00,70.3,63.1,30.13,ESE,105,0.0,0.0,78,0.00,,CLR,0.00,0.00,VWS V14.00,2013-04-26 05:52:00,
2013-04-26 01:57:00,70.2,63.4,30.12,ESE,105,0.0,0.0,79,0.00,,CLR,0.00,0.00,VWS V14.00,2013-04-26 05:57:00,
2013-04-26 02:02:00,69.8,62.6,30.12,ESE,105,0.0,0.0,78,0.00,,CLR,0.00,0.00,VWS V14.00,2013-04-26 06:02:00,
2013-04-26 02:07:00,69.6,62.8,30.12,ESE,105,0.0,0.0,79,0.00,,CLR,0.00,0.00,VWS V14.00,2013-04-26 06:07:00,
2013-04-26 02:12:00,69.4,62.6,30.12,ESE,105,0.0,2.0,79,0.00,,CLR,0.00,0.00,VWS V14.00,2013-04-26 06:12:00,
2013-04-26 02:17:00,69.3,62.5,30.11,ESE,105,0.0,1.0,79,0.00,,CLR,0.00,0.00,VWS V14.00,2013-04-26 06:17:00,
2013-04-26 02:22:00,69.3,62.9,30.11,ESE,105,0.0,0.0,80,0.00,,CLR,0.00,0.00,VWS V14.00,2013-04-26 06:22:00,
2013-04-26 02:27:00,69.4,63.0,30.11,ESE,105,0.0,0.0,80,0.00,,CLR,0.00,0.00,VWS V14.00,2013-04-26 06:27:00,
2013-04-26 02:33:00,69.3,62.5,30.11,ESE,105,1.0,2.0,79,0.00,,CLR,0.00,0.00,VWS V14.00,2013-04-26 06:33:00,
2013-04-26 02:38:00,69.4,62.2,30.11,ESE,105,0.0,1.0,78,0.00,,CLR,0.00,0.00,VWS V14.00,2013-04-26 06:38:00,
2013-04-26 02:43:00,69.4,62.2,30.11,ESE,105,0.0,1.0,78,0.00,,CLR,0.00,0.00,VWS V14.00,2013-04-26 06:43:00,
2013-04-26 02:48:00,69.3,62.2,30.10,ESE,105,1.0,2.0,78,0.00,,CLR,0.00,0.00,VWS V14.00,2013-04-26 06:48:00,
2013-04-26 02:53:00,69.3,62.2,30.10,ESE,105,0.0,1.0,78,0.00,,CLR,0.00,0.00,VWS V14.00,2013-04-26 06:53:00,
2013-04-26 02:58:00,69.3,62.2,30.10,ESE,105,2.0,2.0,78,0.00,,CLR,0.00,0.00,VWS V14.00,2013-04-26 06:58:00,
2013-04-26 03:03:00,69.3,62.2,30.10,ESE,105,2.0,2.0,78,0.00,,CLR,0.00,0.00,VWS V14.00,2013-04-26 07:03:00,
2013-04-26 03:08:00,69.2,62.1,30.10,ESE,105,0.0,0.0,78,0.00,,CLR,0.00,0.00,VWS V14.00,2013-04-26 07:08:00,
2013-04-26 03:13:00,69.2,62.1,30.09,ESE,105,0.0,0.0,78,0.00,,CLR,0.00,0.00,VWS V14.00,2013-04-26 07:13:00,
2013-04-26 03:18:00,69.3,62.5,30.09,ESE,105,0.0,0.0,79,0.00,,CLR,0.00,0.00,VWS V14.00,2013-04-26 07:18:00,
2013-04-26 03:23:00,69.3,62.2,30.09,ESE,105,0.0,0.0,78,0.00,,CLR,0.00,0.00,VWS V14.00,2013-04-26 07:23:00,
2013-04-26 03:28:00,69.2,62.1,30.09,ESE,105,0.0,0.0,78,0.00,,CLR,0.00,0.00,VWS V14.00,2013-04-26 07:28:00,
2013-04-26 03:33:00,69.2,62.1,30.09,ESE,105,0.0,1.0,78,0.00,,CLR,0.00,0.00,VWS V14.00,2013-04-26 07:33:00,
2013-04-26 03:38:00,69.2,62.1,30.08,ESE,105,0.0,0.0,78,0.00,,CLR,0.00,0.00,VWS V14.00,2013-04-26 07:38:00,
2013-04-26 03:43:00,69.2,62.1,30.08,ESE,105,0.0,0.0,78,0.00,,CLR,0.00,0.00,VWS V14.00,2013-04-26 07:43:00,
2013-04-26 03:48:00,69.2,62.1,30.08,ESE,105,0.0,0.0,78,0.00,,CLR,0.00,0.00,VWS V14.00,2013-04-26 07:48:00,
2013-04-26 03:53:00,69.1,62.0,30.08,ESE,105,0.0,0.0,78,0.00,,CLR,0.00,0.00,VWS V14.00,2013-04-26 07:53:00,
2013-04-26 03:58:00,69.1,62.0,30.08,ESE,105,0.0,0.0,78,0.00,,CLR,0.00,0.00,VWS V14.00,2013-04-26 07:58:00,
2013-04-26 04:03:00,69.0,61.9,30.08,ESE,105,0.0,0.0,78,0.00,,CLR,0.00,0.00,VWS V14.00,2013-04-26 08:03:00,
2013-04-26 04:08:00,69.0,62.2,30.08,ESE,105,0.0,0.0,79,0.00,,CLR,0.00,0.00,VWS V14.00,2013-04-26 08:08:00,
2013-04-26 04:13:00,69.0,62.2,30.08,ESE,105,0.0,0.0,79,0.00,,CLR,0.00,0.00,VWS V14.00,2013-04-26 08:13:00,
2013-04-26 04:18:00,69.0,62.2,30.08,ESE,105,0.0,0.0,79,0.00,,CLR,0.00,0.00,VWS V14.00,2013-04-26 08:18:00,
2013-04-26 04:23:00,68.9,62.1,30.08,ESE,105,0.0,0.0,79,0.00,,CLR,0.00,0.00,VWS V14.00,2013-04-26 08:23:00,
2013-04-26 04:28:00,68.8,62.0,30.07,ESE,105,0.0,0.0,79,0.00,,CLR,0.00,0.00,VWS V14.00,2013-04-26 08:28:00,
2013-04-26 04:33:00,68.7,62.3,30.07,ESE,105,0.0,0.0,80,0.00,,CLR,0.00,0.00,VWS V14.00,2013-04-26 08:33:00,
2013-04-26 04:38:00,68.7,62.6,30.07,ESE,105,0.0,0.0,81,0.00,,CLR,0.00,0.00,VWS V14.00,2013-04-26 08:38:00,
2013-04-26 04:43:00,68.7,62.6,30.07,ESE,105,0.0,0.0,81,0.00,,CLR,0.00,0.00,VWS V14.00,2013-04-26 08:43:00,
2013-04-26 04:48:00,68.5,62.8,30.07,ESE,105,0.0,0.0,82,0.00,,CLR,0.00,0.00,VWS V14.00,2013-04-26 08:48:00,
2013-04-26 04:53:00,68.0,62.7,30.08,ESE,105,0.0,0.0,83,0.00,,CLR,0.00,0.00,VWS V14.00,2013-04-26 08:53:00,
2013-04-26 05:00:00,67.7,62.7,30.07,ESE,105,0.0,0.0,84,0.00,,CLR,0.00,0.00,VWS V14.00,2013-04-26 09:00:00,
2013-04-26 05:05:00,67.7,63.0,30.07,ESE,105,0.0,0.0,85,0.00,,CLR,0.00,0.00,VWS V14.00,2013-04-26 09:05:00,
2013-04-26 05:10:00,67.6,62.9,30.07,ESE,105,0.0,0.0,85,0.00,,CLR,0.00,0.00,VWS V14.00,2013-04-26 09:10:00,
2013-04-26 05:15:00,67.4,62.7,30.07,ESE,105,0.0,0.0,85,0.00,,CLR,0.00,0.00,VWS V14.00,2013-04-26 09:15:00,
2013-04-26 05:20:00,67.3,63.0,30.07,ESE,105,0.0,0.0,86,0.00,,CLR,0.00,0.00,VWS V14.00,2013-04-26 09:20:00,
2013-04-26 05:25:00,67.2,62.9,30.07,ESE,105,0.0,0.0,86,0.00,,CLR,0.00,0.00,VWS V14.00,2013-04-26 09:25:00,
2013-04-26 05:30:00,67.0,62.7,30.07,ESE,105,0.0,0.0,86,0.00,,CLR,0.00,0.00,VWS V14.00,2013-04-26 09:30:00,
2013-04-26 05:36:00,67.0,62.7,30.07,ESE,105,0.0,0.0,86,0.00,,CLR,0.00,0.00,VWS V14.00,2013-04-26 09:36:00,
2013-04-26 05:41:00,66.8,62.5,30.07,ESE,105,0.0,0.0,86,0.00,,CLR,0.00,0.00,VWS V14.00,2013-04-26 09:41:00,
2013-04-26 05:46:00,66.6,62.6,30.07,ESE,105,0.0,0.0,87,0.00,,CLR,0.00,0.00,VWS V14.00,2013-04-26 09:46:00,
2013-04-26 05:51:00,66.6,62.6,30.08,ESE,105,0.0,0.0,87,0.00,,CLR,0.00,0.00,VWS V14.00,2013-04-26 09:51:00,
2013-04-26 05:56:00,66.6,62.6,30.08,ESE,105,0.0,0.0,87,0.00,,CLR,0.00,0.00,VWS V14.00,2013-04-26 09:56:00,
2013-04-26 06:01:00,66.6,62.6,30.08,ESE,105,0.0,0.0,87,0.00,,CLR,0.00,0.00,VWS V14.00,2013-04-26 10:01:00,
2013-04-26 06:06:00,66.5,62.5,30.08,ESE,105,0.0,0.0,87,0.00,,CLR,0.00,0.00,VWS V14.00,2013-04-26 10:06:00,
2013-04-26 06:11:00,66.5,62.8,30.08,ESE,105,0.0,0.0,88,0.00,,CLR,0.00,0.00,VWS V14.00,2013-04-26 10:11:00,
2013-04-26 06:16:00,66.6,62.9,30.09,ESE,105,0.0,0.0,88,0.00,,CLR,0.00,0.00,VWS V14.00,2013-04-26 10:16:00,
2013-04-26 06:21:00,66.6,62.9,30.09,ESE,105,0.0,0.0,88,0.00,,CLR,0.00,0.00,VWS V14.00,2013-04-26 10:21:00,
2013-04-26 06:26:00,66.5,62.8,30.09,ESE,105,0.0,0.0,88,0.00,,CLR,0.00,0.00,VWS V14.00,2013-04-26 10:26:00,
2013-04-26 06:31:00,66.4,62.7,30.09,ESE,105,0.0,0.0,88,0.00,,CLR,0.00,0.00,VWS V14.00,2013-04-26 10:31:00,
2013-04-26 06:36:00,66.2,62.5,30.09,ESE,105,0.0,0.0,88,0.00,,CLR,0.00,0.00,VWS V14.00,2013-04-26 10:36:00,
2013-04-26 06:41:00,66.1,62.5,30.09,ESE,105,0.0,0.0,88,0.00,,CLR,0.00,0.00,VWS V14.00,2013-04-26 10:41:00,
2013-04-26 06:46:00,65.9,62.2,30.09,ESE,105,0.0,0.0,88,0.00,,CLR,0.00,0.00,VWS V14.00,2013-04-26 10:46:00,
2013-04-26 06:51:00,66.0,62.7,30.10,ESE,105,0.0,0.0,89,0.00,,CLR,0.00,5.00,VWS V14.00,2013-04-26 10:51:00,
2013-04-26 06:56:00,66.0,62.7,30.10,ESE,105,0.0,0.0,89,0.00,,CLR,0.00,16.00,VWS V14.00,2013-04-26 10:56:00,
2013-04-26 07:01:00,65.9,62.6,30.10,ESE,105,0.0,0.0,89,0.00,,CLR,0.00,44.00,VWS V14.00,2013-04-26 11:01:00,
2013-04-26 07:06:00,66.0,62.7,30.10,ESE,105,0.0,0.0,89,0.00,,CLR,0.00,49.00,VWS V14.00,2013-04-26 11:06:00,
2013-04-26 07:11:00,66.2,62.9,30.11,ESE,105,0.0,0.0,89,0.00,,CLR,0.00,107.00,VWS V14.00,2013-04-26 11:11:00,
2013-04-26 07:17:00,66.4,63.1,30.11,ESE,105,0.0,0.0,89,0.00,,CLR,0.00,128.00,VWS V14.00,2013-04-26 11:17:00,
2013-04-26 07:22:00,66.5,63.2,30.11,ESE,105,0.0,0.0,89,0.00,,CLR,0.00,148.00,VWS V14.00,2013-04-26 11:22:00,
2013-04-26 07:27:00,66.6,63.3,30.12,ESE,105,1.0,1.0,89,0.00,,CLR,0.00,162.00,VWS V14.00,2013-04-26 11:27:00,
2013-04-26 07:32:00,66.8,63.5,30.12,ESE,105,0.0,0.0,89,0.00,,CLR,0.00,171.00,VWS V14.00,2013-04-26 11:32:00,
2013-04-26 07:37:00,67.2,63.8,30.12,ESE,105,0.0,1.0,89,0.00,,CLR,0.00,179.00,VWS V14.00,2013-04-26 11:37:00,
2013-04-26 07:42:00,67.6,64.2,30.13,ESE,106,0.0,0.0,89,0.00,,CLR,0.00,185.00,VWS V14.00,2013-04-26 11:42:00,
2013-04-26 07:47:00,67.9,64.2,30.13,ESE,105,0.0,0.0,88,0.00,,CLR,0.00,185.00,VWS V14.00,2013-04-26 11:47:00,
2013-04-26 07:52:00,68.2,64.5,30.13,ESE,105,0.0,3.0,88,0.00,,CLR,0.00,204.00,VWS V14.00,2013-04-26 11:52:00,
2013-04-26 07:57:00,68.6,64.6,30.13,ESE,105,0.0,1.0,87,0.00,,CLR,0.00,190.00,VWS V14.00,2013-04-26 11:57:00,
2013-04-26 08:02:00,69.0,65.0,30.14,ESE,105,2.0,3.0,87,0.00,,CLR,0.00,153.00,VWS V14.00,2013-04-26 12:02:00,
2013-04-26 08:07:00,69.4,65.0,30.14,ESE,103,0.0,1.0,86,0.00,,CLR,0.00,244.00,VWS V14.00,2013-04-26 12:07:00,
2013-04-26 08:12:00,69.8,65.4,30.14,ESE,103,0.0,0.0,86,0.00,,CLR,0.00,244.00,VWS V14.00,2013-04-26 12:12:00,
2013-04-26 08:17:00,70.2,65.5,30.14,ESE,118,1.0,3.0,85,0.00,,CLR,0.00,220.00,VWS V14.00,2013-04-26 12:17:00,
2013-04-26 08:22:00,70.4,65.3,30.14,ESE,117,1.0,2.0,84,0.00,,CLR,0.00,179.00,VWS V14.00,2013-04-26 12:22:00,
2013-04-26 08:27:00,70.8,65.7,30.14,ESE,117,2.0,3.0,84,0.00,,CLR,0.00,178.00,VWS V14.00,2013-04-26 12:27:00,
2013-04-26 08:32:00,71.1,65.7,30.14,ESE,117,0.0,0.0,83,0.00,,CLR,0.00,171.00,VWS V14.00,2013-04-26 12:32:00,
2013-04-26 08:37:00,71.6,66.2,30.14,ESE,115,0.0,3.0,83,0.00,,CLR,0.00,172.00,VWS V14.00,2013-04-26 12:37:00,
2013-04-26 08:42:00,71.9,65.8,30.15,ESE,115,0.0,0.0,81,0.00,,CLR,0.00,107.00,VWS V14.00,2013-04-26 12:42:00,
2013-04-26 08:47:00,72.3,65.8,30.15,ESE,113,0.0,2.0,80,0.00,,CLR,0.00,178.00,VWS V14.00,2013-04-26 12:47:00,
2013-04-26 08:52:00,72.6,66.1,30.15,ESE,110,2.0,4.0,80,0.00,,CLR,0.00,174.00,VWS V14.00,2013-04-26 12:52:00,
2013-04-26 08:57:00,73.1,66.6,30.15,ESE,108,4.0,4.0,80,0.00,,CLR,0.00,153.00,VWS V14.00,2013-04-26 12:57:00,
2013-04-26 09:02:00,73.4,66.1,30.15,ESE,105,0.0,4.0,78,0.00,,CLR,0.00,185.00,VWS V14.00,2013-04-26 13:02:00,
2013-04-26 09:07:00,73.5,66.2,30.15,East,99,4.0,4.0,78,0.00,,CLR,0.00,165.00,VWS V14.00,2013-04-26 13:07:00,
2013-04-26 09:12:00,73.7,66.4,30.16,East,98,0.0,3.0,78,0.00,,CLR,0.00,100.00,VWS V14.00,2013-04-26 13:12:00,
2013-04-26 09:17:00,73.9,66.6,30.16,East,98,1.0,1.0,78,0.00,,CLR,0.00,163.00,VWS V14.00,2013-04-26 13:17:00,
2013-04-26 09:22:00,74.2,66.2,30.16,East,96,0.0,3.0,76,0.00,,CLR,0.00,107.00,VWS V14.00,2013-04-26 13:22:00,
2013-04-26 09:27:00,74.4,66.0,30.16,East,96,0.0,1.0,75,0.00,,CLR,0.00,128.00,VWS V14.00,2013-04-26 13:27:00,
2013-04-26 09:32:00,74.5,65.7,30.16,ESE,102,7.0,8.0,74,0.00,,CLR,0.00,151.00,VWS V14.00,2013-04-26 13:32:00,
2013-04-26 09:37:00,74.8,64.8,30.16,ESE,112,5.0,9.0,71,0.00,,CLR,0.00,102.00,VWS V14.00,2013-04-26 13:37:00,
2013-04-26 09:42:00,74.9,64.5,30.16,ESE,103,3.0,4.0,70,0.00,,CLR,0.00,176.00,VWS V14.00,2013-04-26 13:42:00,
2013-04-26 09:47:00,75.3,65.3,30.16,East,98,7.0,10.0,71,0.00,,CLR,0.00,206.00,VWS V14.00,2013-04-26 13:47:00,
2013-04-26 09:52:00,75.7,64.8,30.16,East,101,3.0,5.0,69,0.00,,CLR,0.00,176.00,VWS V14.00,2013-04-26 13:52:00,
2013-04-26 09:57:00,75.7,64.4,30.16,ESE,103,6.0,6.0,68,0.00,,CLR,0.00,214.00,VWS V14.00,2013-04-26 13:57:00,
2013-04-26 10:02:00,75.8,64.9,30.16,East,94,4.0,6.0,69,0.00,,CLR,0.00,225.00,VWS V14.00,2013-04-26 14:02:00,
2013-04-26 10:07:00,75.9,65.0,30.16,East,93,4.0,7.0,69,0.00,,CLR,0.00,223.00,VWS V14.00,2013-04-26 14:07:00,
2013-04-26 10:12:00,76.4,64.6,30.17,East,84,3.0,7.0,67,0.00,,CLR,0.00,225.00,VWS V14.00,2013-04-26 14:12:00,
2013-04-26 10:17:00,76.3,64.6,30.17,ENE,76,1.0,6.0,67,0.00,,CLR,0.00,216.00,VWS V14.00,2013-04-26 14:17:00,
2013-04-26 10:22:00,76.2,64.9,30.17,ENE,76,6.0,11.0,68,0.00,,CLR,0.00,197.00,VWS V14.00,2013-04-26 14:22:00,
2013-04-26 10:27:00,76.1,64.8,30.17,East,84,3.0,4.0,68,0.00,,CLR,0.00,223.00,VWS V14.00,2013-04-26 14:27:00,
2013-04-26 10:32:00,76.7,65.3,30.17,SE,124,5.0,9.0,68,0.00,,CLR,0.00,221.00,VWS V14.00,2013-04-26 14:32:00,
2013-04-26 10:37:00,76.9,65.5,30.16,East,99,6.0,11.0,68,0.00,,CLR,0.00,221.00,VWS V14.00,2013-04-26 14:37:00,
2013-04-26 10:42:00,77.0,65.6,30.17,East,95,7.0,7.0,68,0.00,,CLR,0.00,193.00,VWS V14.00,2013-04-26 14:42:00,
2013-04-26 10:47:00,77.0,64.8,30.17,East,98,6.0,11.0,66,0.00,,CLR,0.00,221.00,VWS V14.00,2013-04-26 14:47:00,
2013-04-26 10:52:00,77.3,64.6,30.17,ESE,107,7.0,12.0,65,0.00,,CLR,0.00,227.00,VWS V14.00,2013-04-26 14:52:00,
2013-04-26 10:57:00,77.2,64.5,30.17,ESE,104,7.0,10.0,65,0.00,,CLR,0.00,220.00,VWS V14.00,2013-04-26 14:57:00,
2013-04-26 11:02:00,77.1,64.9,30.17,ESE,104,4.0,5.0,66,0.00,,CLR,0.00,155.00,VWS V14.00,2013-04-26 15:02:00,
2013-04-26 11:07:00,77.4,64.7,30.17,ESE,119,7.0,10.0,65,0.00,,CLR,0.00,146.00,VWS V14.00,2013-04-26 15:07:00,
2013-04-26 11:12:00,77.4,65.2,30.17,East,82,7.0,8.0,66,0.00,,CLR,0.00,176.00,VWS V14.00,2013-04-26 15:12:00,
2013-04-26 11:17:00,77.2,65.4,30.18,ESE,105,10.0,12.0,67,0.00,,CLR,0.00,218.00,VWS V14.00,2013-04-26 15:17:00,
2013-04-26 11:22:00,77.3,65.1,30.17,ENE,62,3.0,11.0,66,0.00,,CLR,0.00,192.00,VWS V14.00,2013-04-26 15:22:00,
2013-04-26 11:27:00,77.5,65.3,30.18,ESE,121,2.0,9.0,66,0.00,,CLR,0.00,216.00,VWS V14.00,2013-04-26 15:27:00,
2013-04-26 11:32:00,78.2,65.5,30.18,ESE,110,5.0,11.0,65,0.00,,CLR,0.00,218.00,VWS V14.00,2013-04-26 15:32:00,
2013-04-26 11:37:00,78.4,65.7,30.18,East,99,10.0,10.0,65,0.00,,CLR,0.00,202.00,VWS V14.00,2013-04-26 15:37:00,
2013-04-26 11:42:00,77.6,65.3,30.17,East,93,10.0,13.0,66,0.00,,CLR,0.00,70.00,VWS V14.00,2013-04-26 15:42:00,
2013-04-26 11:47:00,77.2,65.0,30.18,ESE,111,9.0,11.0,66,0.00,,CLR,0.00,188.00,VWS V14.00,2013-04-26 15:47:00,
2013-04-26 11:52:00,77.3,65.1,30.17,ESE,102,11.0,13.0,66,0.00,,CLR,0.00,195.00,VWS V14.00,2013-04-26 15:52:00,
2013-04-26 11:57:00,77.5,65.3,30.17,East,96,10.0,11.0,66,0.00,,CLR,0.00,192.00,VWS V14.00,2013-04-26 15:57:00,
2013-04-26 12:02:00,77.5,65.3,30.17,SE,133,5.0,9.0,66,0.00,,CLR,0.00,120.00,VWS V14.00,2013-04-26 16:02:00,
2013-04-26 12:07:00,77.8,64.7,30.17,ESE,104,5.0,10.0,64,0.00,,CLR,0.00,63.00,VWS V14.00,2013-04-26 16:07:00,
2013-04-26 12:12:00,77.6,64.9,30.17,ESE,105,8.0,12.0,65,0.00,,CLR,0.00,151.00,VWS V14.00,2013-04-26 16:12:00,
2013-04-26 12:17:00,77.5,65.3,30.17,ESE,109,9.0,13.0,66,0.00,,CLR,0.00,209.00,VWS V14.00,2013-04-26 16:17:00,
2013-04-26 12:23:00,77.6,65.8,30.17,SE,131,5.0,7.0,67,0.00,,CLR,0.00,70.00,VWS V14.00,2013-04-26 16:23:00,
2013-04-26 12:28:00,78.0,65.3,30.17,East,95,8.0,9.0,65,0.00,,CLR,0.00,197.00,VWS V14.00,2013-04-26 16:28:00,
2013-04-26 12:33:00,77.8,65.5,30.16,ENE,77,5.0,7.0,66,0.00,,CLR,0.00,192.00,VWS V14.00,2013-04-26 16:33:00,
2013-04-26 12:38:00,78.1,65.8,30.16,ESE,106,7.0,10.0,66,0.00,,CLR,0.00,197.00,VWS V14.00,2013-04-26 16:38:00,
2013-04-26 12:43:00,78.7,66.4,30.16,ESE,104,14.0,14.0,66,0.00,,CLR,0.00,179.00,VWS V14.00,2013-04-26 16:43:00,
2013-04-26 12:48:00,78.5,65.3,30.16,East,96,10.0,10.0,64,0.00,,CLR,0.00,162.00,VWS V14.00,2013-04-26 16:48:00,
2013-04-26 12:53:00,78.2,65.5,30.16,East,87,11.0,11.0,65,0.00,,CLR,0.00,176.00,VWS V14.00,2013-04-26 16:53:00,
2013-04-26 12:58:00,78.3,65.6,30.16,SE,126,11.0,11.0,65,0.00,,CLR,0.00,178.00,VWS V14.00,2013-04-26 16:58:00,
2013-04-26 13:03:00,78.8,66.5,30.16,SSE,156,4.0,10.0,66,0.00,,CLR,0.00,178.00,VWS V14.00,2013-04-26 17:03:00,
2013-04-26 13:08:00,78.9,65.2,30.16,ESE,117,9.0,12.0,63,0.00,,CLR,0.00,179.00,VWS V14.00,2013-04-26 17:08:00,
2013-04-26 13:13:00,78.7,64.6,30.16,ESE,121,5.0,8.0,62,0.00,,CLR,0.00,178.00,VWS V14.00,2013-04-26 17:13:00,
2013-04-26 13:18:00,78.9,64.8,30.16,East,84,6.0,14.0,62,0.00,,CLR,0.00,181.00,VWS V14.00,2013-04-26 17:18:00,
2013-04-26 13:23:00,78.8,65.6,30.16,East,92,5.0,8.0,64,0.00,,CLR,0.00,93.00,VWS V14.00,2013-04-26 17:23:00,
2013-04-26 13:28:00,79.0,65.3,30.16,SE,132,10.0,14.0,63,0.00,,CLR,0.00,188.00,VWS V14.00,2013-04-26 17:28:00,
2013-04-26 13:33:00,79.2,65.1,30.16,ESE,111,11.0,13.0,62,0.00,,FEW035,0.00,102.00,VWS V14.00,2013-04-26 17:33:00,
2013-04-26 13:38:00,78.8,65.6,30.16,East,93,7.0,10.0,64,0.00,,FEW035,0.00,156.00,VWS V14.00,2013-04-26 17:38:00,
2013-04-26 13:43:00,78.7,66.0,30.16,East,98,9.0,13.0,65,0.00,,FEW035,0.00,183.00,VWS V14.00,2013-04-26 17:43:00,
2013-04-26 13:48:00,78.5,65.8,30.16,SE,125,13.0,13.0,65,0.00,,FEW035,0.00,178.00,VWS V14.00,2013-04-26 17:48:00,
2013-04-26 13:53:00,78.6,65.9,30.16,ESE,102,9.0,13.0,65,0.00,,FEW035,0.00,195.00,VWS V14.00,2013-04-26 17:53:00,
2013-04-26 13:58:00,78.7,65.1,30.16,ESE,106,11.0,18.0,63,0.00,,FEW035,0.00,199.00,VWS V14.00,2013-04-26 17:58:00,
2013-04-26 14:03:00,78.7,65.1,30.16,East,82,6.0,14.0,63,0.00,,FEW035,0.00,188.00,VWS V14.00,2013-04-26 18:03:00,
2013-04-26 14:08:00,78.7,64.6,30.16,ESE,105,8.0,19.0,62,0.00,,FEW035,0.00,181.00,VWS V14.00,2013-04-26 18:08:00,
2013-04-26 14:13:00,79.1,65.4,30.15,ESE,105,13.0,16.0,63,0.00,,FEW035,0.00,186.00,VWS V14.00,2013-04-26 18:13:00,
2013-04-26 14:18:00,78.8,65.6,30.15,East,95,5.0,16.0,64,0.00,,FEW035,0.00,178.00,VWS V14.00,2013-04-26 18:18:00,
2013-04-26 14:23:00,78.6,65.4,30.15,ENE,57,13.0,14.0,64,0.00,,FEW035,0.00,181.00,VWS V14.00,2013-04-26 18:23:00,
2013-04-26 14:28:00,78.6,65.4,30.15,East,85,9.0,12.0,64,0.00,,FEW035,0.00,149.00,VWS V14.00,2013-04-26 18:28:00,
2013-04-26 14:33:00,78.7,66.0,30.15,ESE,105,7.0,12.0,65,0.00,,FEW050,0.00,186.00,VWS V14.00,2013-04-26 18:33:00,
2013-04-26 14:39:00,78.5,65.3,30.15,East,88,15.0,19.0,64,0.00,,FEW050,0.00,188.00,VWS V14.00,2013-04-26 18:39:00,
2013-04-26 14:44:00,78.5,65.3,30.15,ESE,117,16.0,16.0,64,0.00,,FEW050,0.00,199.00,VWS V14.00,2013-04-26 18:44:00,
2013-04-26 14:49:00,78.3,65.6,30.15,ESE,109,7.0,14.0,65,0.00,,FEW050,0.00,190.00,VWS V14.00,2013-04-26 18:49:00,
2013-04-26 14:54:00,78.6,65.9,30.15,ESE,118,9.0,14.0,65,0.00,,FEW050,0.00,192.00,VWS V14.00,2013-04-26 18:54:00,
2013-04-26 14:59:00,78.7,65.5,30.14,ESE,103,13.0,18.0,64,0.00,,FEW050,0.00,163.00,VWS V14.00,2013-04-26 18:59:00,
2013-04-26 15:04:00,78.7,66.0,30.14,ESE,113,12.0,15.0,65,0.00,,FEW050,0.00,172.00,VWS V14.00,2013-04-26 19:04:00,
2013-04-26 15:09:00,78.7,66.4,30.14,ESE,106,12.0,12.0,66,0.00,,FEW050,0.00,165.00,VWS V14.00,2013-04-26 19:09:00,
2013-04-26 15:14:00,78.3,65.6,30.14,East,101,9.0,13.0,65,0.00,,FEW050,0.00,167.00,VWS V14.00,2013-04-26 19:14:00,
2013-04-26 15:19:00,78.4,66.1,30.13,East,98,10.0,10.0,66,0.00,,FEW050,0.00,167.00,VWS V14.00,2013-04-26 19:19:00,
2013-04-26 15:24:00,78.8,66.5,30.13,ESE,117,10.0,14.0,66,0.00,,FEW050,0.00,163.00,VWS V14.00,2013-04-26 19:24:00,
2013-04-26 15:29:00,78.4,66.1,30.13,ESE,107,12.0,12.0,66,0.00,,FEW050,0.00,162.00,VWS V14.00,2013-04-26 19:29:00,
2013-04-26 15:34:00,78.7,66.0,30.13,ESE,112,6.0,13.0,65,0.00,,SCT031,0.00,160.00,VWS V14.00,2013-04-26 19:34:00,
2013-04-26 15:39:00,78.7,66.0,30.13,ENE,69,12.0,13.0,65,0.00,,SCT031,0.00,162.00,VWS V14.00,2013-04-26 19:39:00,
2013-04-26 15:44:00,78.5,65.8,30.12,SE,136,7.0,11.0,65,0.00,,SCT031,0.00,76.00,VWS V14.00,2013-04-26 19:44:00,
2013-04-26 15:49:00,78.5,65.8,30.12,East,88,10.0,13.0,65,0.00,,SCT031,0.00,160.00,VWS V14.00,2013-04-26 19:49:00,
2013-04-26 15:54:00,78.1,65.8,30.12,ESE,113,7.0,18.0,66,0.00,,SCT031,0.00,156.00,VWS V14.00,2013-04-26 19:54:00,
2013-04-26 15:59:00,78.2,65.9,30.12,East,80,7.0,12.0,66,0.00,,SCT031,0.00,155.00,VWS V14.00,2013-04-26 19:59:00,
2013-04-26 16:04:00,78.4,66.6,30.12,East,96,6.0,6.0,67,0.00,,SCT031,0.00,155.00,VWS V14.00,2013-04-26 20:04:00,
2013-04-26 16:09:00,78.4,65.7,30.12,ESE,114,10.0,15.0,65,0.00,,SCT031,0.00,146.00,VWS V14.00,2013-04-26 20:09:00,
2013-04-26 16:14:00,78.4,66.1,30.12,East,94,11.0,14.0,66,0.00,,SCT031,0.00,146.00,VWS V14.00,2013-04-26 20:14:00,
2013-04-26 16:19:00,78.1,66.3,30.12,East,84,9.0,15.0,67,0.00,,SCT031,0.00,149.00,VWS V14.00,2013-04-26 20:19:00,
2013-04-26 16:24:00,78.3,66.9,30.12,East,95,8.0,12.0,68,0.00,,SCT031,0.00,151.00,VWS V14.00,2013-04-26 20:24:00,
2013-04-26 16:29:00,78.5,66.6,30.12,ESE,115,13.0,13.0,67,0.00,,SCT031,0.00,163.00,VWS V14.00,2013-04-26 20:29:00,
2013-04-26 16:34:00,78.6,66.7,30.12,East,94,15.0,15.0,67,0.00,,SCT031,0.00,155.00,VWS V14.00,2013-04-26 20:34:00,
2013-04-26 16:39:00,78.2,65.9,30.12,ENE,77,6.0,11.0,66,0.00,,SCT031,0.00,151.00,VWS V14.00,2013-04-26 20:39:00,
2013-04-26 16:44:00,78.6,66.7,30.12,SE,141,4.0,12.0,67,0.00,,SCT031,0.00,149.00,VWS V14.00,2013-04-26 20:44:00,
2013-04-26 16:49:00,78.8,66.5,30.12,East,100,11.0,12.0,66,0.00,,SCT031,0.00,151.00,VWS V14.00,2013-04-26 20:49:00,
2013-04-26 16:54:00,78.3,66.0,30.12,ESE,112,7.0,12.0,66,0.00,,SCT031,0.00,149.00,VWS V14.00,2013-04-26 20:54:00,
2013-04-26 16:59:00,78.0,66.2,30.12,ESE,108,9.0,14.0,67,0.00,,SCT031,0.00,93.00,VWS V14.00,2013-04-26 20:59:00,
2013-04-26 17:04:00,78.0,66.6,30.12,ESE,122,12.0,18.0,68,0.00,,SCT031,0.00,151.00,VWS V14.00,2013-04-26 21:04:00,
2013-04-26 17:09:00,77.8,66.4,30.12,ESE,116,11.0,11.0,68,0.00,,SCT031,0.00,148.00,VWS V14.00,2013-04-26 21:09:00,
2013-04-26 17:14:00,77.8,65.5,30.12,East,87,9.0,17.0,66,0.00,,SCT031,0.00,142.00,VWS V14.00,2013-04-26 21:14:00,
2013-04-26 17:19:00,77.6,66.2,30.12,ESE,107,9.0,13.0,68,0.00,,SCT031,0.00,141.00,VWS V14.00,2013-04-26 21:19:00,
2013-04-26 17:24:00,77.7,65.9,30.12,East,90,11.0,14.0,67,0.00,,SCT031,0.00,144.00,VWS V14.00,2013-04-26 21:24:00,
2013-04-26 17:29:00,77.4,65.6,30.12,East,88,9.0,12.0,67,0.00,,SCT031,0.00,116.00,VWS V14.00,2013-04-26 21:29:00,
2013-04-26 17:34:00,77.3,65.9,30.12,ENE,73,5.0,12.0,68,0.00,,SCT031,0.00,139.00,VWS V14.00,2013-04-26 21:34:00,
2013-04-26 17:39:00,77.5,66.1,30.12,ESE,104,12.0,14.0,68,0.00,,FEW030,0.00,151.00,VWS V14.00,2013-04-26 21:39:00,
2013-04-26 17:44:00,77.7,66.3,30.12,ESE,107,11.0,14.0,68,0.00,,FEW030,0.00,130.00,VWS V14.00,2013-04-26 21:44:00,
2013-04-26 17:49:00,77.5,65.7,30.12,ESE,123,9.0,15.0,67,0.00,,FEW030,0.00,69.00,VWS V14.00,2013-04-26 21:49:00,
2013-04-26 17:54:00,77.3,66.3,30.12,ESE,113,9.0,10.0,69,0.00,,FEW030,0.00,121.00,VWS V14.00,2013-04-26 21:54:00,
2013-04-26 17:59:00,77.5,65.7,30.12,East,80,9.0,11.0,67,0.00,,FEW030,0.00,118.00,VWS V14.00,2013-04-26 21:59:00,
2013-04-26 18:04:00,77.5,66.1,30.12,ESE,115,7.0,16.0,68,0.00,,FEW030,0.00,123.00,VWS V14.00,2013-04-26 22:04:00,
2013-04-26 18:09:00,77.5,66.5,30.12,East,92,9.0,14.0,69,0.00,,FEW030,0.00,116.00,VWS V14.00,2013-04-26 22:09:00,
2013-04-26 18:14:00,77.5,65.7,30.12,ESE,111,11.0,15.0,67,0.00,,FEW030,0.00,107.00,VWS V14.00,2013-04-26 22:14:00,
2013-04-26 18:20:00,77.1,65.7,30.12,ESE,113,7.0,15.0,68,0.00,,FEW030,0.00,98.00,VWS V14.00,2013-04-26 22:20:00,
2013-04-26 18:25:00,76.9,65.5,30.12,ESE,108,10.0,15.0,68,0.00,,FEW030,0.00,97.00,VWS V14.00,2013-04-26 22:25:00,
2013-04-26 18:30:00,77.1,66.2,30.12,ESE,123,10.0,15.0,69,0.00,,FEW030,0.00,91.00,VWS V14.00,2013-04-26 22:30:00,
2013-04-26 18:35:00,77.0,66.1,30.11,East,99,8.0,12.0,69,0.00,,SCT030,0.00,86.00,VWS V14.00,2013-04-26 22:35:00,
2013-04-26 18:40:00,76.8,65.9,30.11,ESE,120,13.0,14.0,69,0.00,,FEW030,0.00,83.00,VWS V14.00,2013-04-26 22:40:00,
2013-04-26 18:45:00,76.7,65.8,30.11,ENE,67,11.0,12.0,69,0.00,,SCT030,0.00,54.00,VWS V14.00,2013-04-26 22:45:00,
2013-04-26 18:50:00,76.8,66.3,30.11,ESE,109,12.0,12.0,70,0.00,,SCT030,0.00,74.00,VWS V14.00,2013-04-26 22:50:00,
2013-04-26 18:55:00,76.9,66.8,30.11,ESE,115,10.0,13.0,71,0.00,,SCT030,0.00,65.00,VWS V14.00,2013-04-26 22:55:00,
2013-04-26 19:00:00,76.6,66.1,30.11,ESE,122,7.0,10.0,70,0.00,,SCT030,0.00,58.00,VWS V14.00,2013-04-26 23:00:00,
2013-04-26 19:05:00,76.4,65.9,30.11,ESE,113,9.0,13.0,70,0.00,,SCT030,0.00,53.00,VWS V14.00,2013-04-26 23:05:00,
2013-04-26 19:10:00,76.3,66.2,30.11,ESE,120,10.0,13.0,71,0.00,,SCT030,0.00,46.00,VWS V14.00,2013-04-26 23:10:00,
2013-04-26 19:15:00,76.3,66.2,30.12,ESE,106,7.0,12.0,71,0.00,,SCT030,0.00,37.00,VWS V14.00,2013-04-26 23:15:00,
2013-04-26 19:20:00,76.1,66.4,30.11,ESE,115,9.0,10.0,72,0.00,,SCT030,0.00,26.00,VWS V14.00,2013-04-26 23:20:00,
2013-04-26 19:25:00,75.9,65.8,30.12,East,101,8.0,12.0,71,0.00,,SCT030,0.00,16.00,VWS V14.00,2013-04-26 23:25:00,
2013-04-26 19:30:00,75.7,65.6,30.12,ESE,112,7.0,10.0,71,0.00,,SCT030,0.00,12.00,VWS V14.00,2013-04-26 23:30:00,
2013-04-26 19:35:00,75.7,65.6,30.12,ESE,114,11.0,14.0,71,0.00,,SCT030,0.00,9.00,VWS V14.00,2013-04-26 23:35:00,
2013-04-26 19:40:00,75.6,65.9,30.12,ESE,105,10.0,12.0,72,0.00,,FEW030,0.00,5.00,VWS V14.00,2013-04-26 23:40:00,
2013-04-26 19:45:00,75.5,65.8,30.12,ESE,114,13.0,13.0,72,0.00,,FEW030,0.00,0.00,VWS V14.00,2013-04-26 23:45:00,
2013-04-26 19:50:00,75.4,66.2,30.12,ESE,119,5.0,10.0,73,0.00,,FEW030,0.00,0.00,VWS V14.00,2013-04-26 23:50:00,
2013-04-26 20:06:00,75.1,66.2,30.13,ESE,116,5.0,6.0,74,0.00,,FEW030,0.00,0.00,VWS V14.00,2013-04-27 00:06:00,
2013-04-26 20:11:00,75.1,66.2,30.13,ESE,107,4.0,5.0,74,0.00,,FEW030,0.00,0.00,VWS V14.00,2013-04-27 00:11:00,
2013-04-26 20:16:00,75.1,66.2,30.13,ESE,110,7.0,10.0,74,0.00,,FEW030,0.00,0.00,VWS V14.00,2013-04-27 00:16:00,
2013-04-26 20:22:00,75.0,66.2,30.13,ESE,111,5.0,7.0,74,0.00,,FEW030,0.00,0.00,VWS V14.00,2013-04-27 00:22:00,
2013-04-26 20:27:00,75.0,66.2,30.13,ESE,111,6.0,7.0,74,0.00,,FEW030,0.00,0.00,VWS V14.00,2013-04-27 00:27:00,
2013-04-26 20:32:00,75.0,66.2,30.13,ESE,106,6.0,10.0,74,0.00,,FEW030,0.00,0.00,VWS V14.00,2013-04-27 00:32:00,
2013-04-26 20:37:00,74.9,66.1,30.13,ESE,106,5.0,5.0,74,0.00,,FEW030,0.00,0.00,VWS V14.00,2013-04-27 00:37:00,
2013-04-26 20:42:00,74.9,66.1,30.13,ESE,107,3.0,7.0,74,0.00,,FEW030,0.00,0.00,VWS V14.00,2013-04-27 00:42:00,
2013-04-26 20:47:00,74.9,66.1,30.13,ESE,108,5.0,6.0,74,0.00,,FEW030,0.00,0.00,VWS V14.00,2013-04-27 00:47:00,
2013-04-26 20:52:00,74.8,66.3,30.14,ESE,108,5.0,5.0,75,0.00,,FEW030,0.00,0.00,VWS V14.00,2013-04-27 00:52:00,
2013-04-26 20:57:00,74.8,66.3,30.14,ESE,107,4.0,6.0,75,0.00,,FEW030,0.00,0.00,VWS V14.00,2013-04-27 00:57:00,
2013-04-26 21:02:00,74.7,66.3,30.14,ESE,107,4.0,7.0,75,0.00,,FEW030,0.00,0.00,VWS V14.00,2013-04-27 01:02:00,
2013-04-26 21:07:00,74.7,66.3,30.14,ESE,111,6.0,10.0,75,0.00,,FEW030,0.00,0.00,VWS V14.00,2013-04-27 01:07:00,
2013-04-26 21:12:00,74.7,66.3,30.14,ESE,110,4.0,5.0,75,0.00,,FEW030,0.00,0.00,VWS V14.00,2013-04-27 01:12:00,
2013-04-26 21:17:00,74.7,66.3,30.14,ESE,110,2.0,5.0,75,0.00,,FEW030,0.00,0.00,VWS V14.00,2013-04-27 01:17:00,
2013-04-26 21:22:00,74.6,66.2,30.14,ESE,109,4.0,6.0,75,0.00,,FEW030,0.00,0.00,VWS V14.00,2013-04-27 01:22:00,
2013-04-26 21:27:00,74.5,66.4,30.14,ESE,110,4.0,6.0,76,0.00,,FEW030,0.00,0.00,VWS V14.00,2013-04-27 01:27:00,
2013-04-26 21:32:00,74.5,66.4,30.14,ESE,109,5.0,6.0,76,0.00,,FEW030,0.00,0.00,VWS V14.00,2013-04-27 01:32:00,
2013-04-26 21:37:00,74.5,66.4,30.14,ESE,110,3.0,4.0,76,0.00,,FEW030,0.00,0.00,VWS V14.00,2013-04-27 01:37:00,
2013-04-26 21:42:00,74.4,66.3,30.15,ESE,105,4.0,6.0,76,0.00,,FEW030,0.00,0.00,VWS V14.00,2013-04-27 01:42:00,
2013-04-26 21:47:00,74.4,66.0,30.14,ESE,107,6.0,7.0,75,0.00,,FEW030,0.00,0.00,VWS V14.00,2013-04-27 01:47:00,
2013-04-26 21:52:00,74.5,66.1,30.15,ESE,107,4.0,6.0,75,0.00,,FEW030,0.00,0.00,VWS V14.00,2013-04-27 01:52:00,
2013-04-26 21:57:00,74.5,66.4,30.15,ESE,108,5.0,5.0,76,0.00,,FEW030,0.00,0.00,VWS V14.00,2013-04-27 01:57:00,
2013-04-26 22:02:00,74.4,66.0,30.15,ESE,107,5.0,6.0,75,0.00,,FEW030,0.00,0.00,VWS V14.00,2013-04-27 02:02:00,
2013-04-26 22:07:00,74.5,66.4,30.15,ESE,107,3.0,5.0,76,0.00,,FEW030,0.00,0.00,VWS V14.00,2013-04-27 02:07:00,
2013-04-26 22:12:00,74.5,66.4,30.15,ESE,108,6.0,7.0,76,0.00,,FEW030,0.00,0.00,VWS V14.00,2013-04-27 02:12:00,
2013-04-26 22:17:00,74.4,66.0,30.15,ESE,107,5.0,7.0,75,0.00,,FEW030,0.00,0.00,VWS V14.00,2013-04-27 02:17:00,
2013-04-26 22:22:00,74.5,66.1,30.15,ESE,105,6.0,6.0,75,0.00,,FEW030,0.00,0.00,VWS V14.00,2013-04-27 02:22:00,
2013-04-26 22:27:00,74.5,66.1,30.15,ESE,111,4.0,7.0,75,0.00,,FEW030,0.00,0.00,VWS V14.00,2013-04-27 02:27:00,
2013-04-26 22:32:00,74.6,66.2,30.16,ESE,108,6.0,7.0,75,0.00,,FEW030,0.00,0.00,VWS V14.00,2013-04-27 02:32:00,
2013-04-26 22:37:00,74.6,66.2,30.15,ESE,109,5.0,10.0,75,0.00,,FEW030,0.00,0.00,VWS V14.00,2013-04-27 02:37:00,
2013-04-26 22:42:00,74.6,66.2,30.15,ESE,105,3.0,6.0,75,0.00,,FEW030,0.00,0.00,VWS V14.00,2013-04-27 02:42:00,
2013-04-26 22:47:00,74.5,66.1,30.15,ESE,117,9.0,11.0,75,0.00,,FEW030,0.00,0.00,VWS V14.00,2013-04-27 02:47:00,
2013-04-26 22:52:00,74.5,66.1,30.15,ESE,114,7.0,10.0,75,0.00,,FEW030,0.00,0.00,VWS V14.00,2013-04-27 02:52:00,
2013-04-26 22:57:00,74.5,65.7,30.16,ESE,105,7.0,10.0,74,0.00,,FEW030,0.00,0.00,VWS V14.00,2013-04-27 02:57:00,
2013-04-26 23:02:00,74.6,65.8,30.16,ESE,105,5.0,6.0,74,0.00,,FEW030,0.00,0.00,VWS V14.00,2013-04-27 03:02:00,
2013-04-26 23:07:00,74.5,66.1,30.16,ESE,105,1.0,5.0,75,0.00,,FEW030,0.00,0.00,VWS V14.00,2013-04-27 03:07:00,
2013-04-26 23:12:00,74.4,66.0,30.16,ESE,114,5.0,6.0,75,0.00,,FEW030,0.00,0.00,VWS V14.00,2013-04-27 03:12:00,
2013-04-26 23:17:00,74.4,66.0,30.16,ESE,113,5.0,5.0,75,0.00,,FEW030,0.00,0.00,VWS V14.00,2013-04-27 03:17:00,
2013-04-26 23:22:00,74.3,65.9,30.16,ESE,113,5.0,6.0,75,0.00,,FEW030,0.00,0.00,VWS V14.00,2013-04-27 03:22:00,
2013-04-26 23:27:00,74.2,65.8,30.16,ESE,111,6.0,10.0,75,0.00,,FEW030,0.00,0.00,VWS V14.00,2013-04-27 03:27:00,
2013-04-26 23:32:00,74.2,65.8,30.16,ESE,111,6.0,7.0,75,0.00,,FEW030,0.00,0.00,VWS V14.00,2013-04-27 03:32:00,
2013-04-26 23:37:00,74.3,65.9,30.16,ESE,111,3.0,5.0,75,0.00,,SCT035,0.00,0.00,VWS V14.00,2013-04-27 03:37:00,
2013-04-26 23:42:00,74.3,65.5,30.16,ESE,110,5.0,8.0,74,0.00,,SCT035,0.00,0.00,VWS V14.00,2013-04-27 03:42:00,
2013-04-26 23:47:00,74.3,65.5,30.16,ESE,111,6.0,7.0,74,0.00,,SCT035,0.00,0.00,VWS V14.00,2013-04-27 03:47:00,
2013-04-26 23:52:00,74.3,65.5,30.16,ESE,109,5.0,7.0,74,0.00,,SCT035,0.00,0.00,VWS V14.00,2013-04-27 03:52:00,
2013-04-26 23:57:00,74.4,65.6,30.16,ESE,109,1.0,4.0,74,0.00,,SCT035,0.00,0.00,VWS V14.00,2013-04-27 03:57:00,